sensor_id;sensor_type;location;lat;lon;timestamp;temperature;humidity
28632;DHT22;15818;45.534;5.292;2022-09-29T00:01:07;12.30;99.90
28632;DHT22;15818;45.534;5.292;2022-09-29T00:03:33;12.30;99.90
28632;DHT22;15818;45.534;5.292;2022-09-29T00:05:58;12.20;99.90
28632;DHT22;15818;45.534;5.292;2022-09-29T00:08:26;12.30;99.90
28632;DHT22;15818;45.534;5.292;2022-09-29T00:10:53;12.30;99.90
28632;DHT22;15818;45.534;5.292;2022-09-29T00:13:18;12.20;99.90
28632;DHT22;15818;45.534;5.292;2022-09-29T00:15:53;12.10;99.90
28632;DHT22;15818;45.534;5.292;2022-09-29T00:18:19;12.10;99.90
28632;DHT22;15818;45.534;5.292;2022-09-29T00:20:54;12.00;99.90
28632;DHT22;15818;45.534;5.292;2022-09-29T00:23:23;12.00;99.90
28632;DHT22;15818;45.534;5.292;2022-09-29T00:26:04;12.00;99.90
28632;DHT22;15818;45.534;5.292;2022-09-29T00:28:31;12.00;99.90
28632;DHT22;15818;45.534;5.292;2022-09-29T00:30:58;12.00;99.90
28632;DHT22;15818;45.534;5.292;2022-09-29T00:33:27;12.10;99.90
28632;DHT22;15818;45.534;5.292;2022-09-29T00:36:16;12.10;99.90
28632;DHT22;15818;45.534;5.292;2022-09-29T00:38:44;12.00;99.90
28632;DHT22;15818;45.534;5.292;2022-09-29T00:41:24;12.00;99.90
28632;DHT22;15818;45.534;5.292;2022-09-29T00:43:55;12.10;99.90
28632;DHT22;15818;45.534;5.292;2022-09-29T00:46:30;12.00;99.90
28632;DHT22;15818;45.534;5.292;2022-09-29T00:49:12;12.10;99.90
28632;DHT22;15818;45.534;5.292;2022-09-29T00:51:39;12.10;99.90
28632;DHT22;15818;45.534;5.292;2022-09-29T00:54:07;12.10;99.90
28632;DHT22;15818;45.534;5.292;2022-09-29T00:56:35;12.10;99.90
28632;DHT22;15818;45.534;5.292;2022-09-29T00:59:07;12.10;99.90
28632;DHT22;15818;45.534;5.292;2022-09-29T01:01:33;12.10;99.90
28632;DHT22;15818;45.534;5.292;2022-09-29T01:04:06;12.10;99.90
28632;DHT22;15818;45.534;5.292;2022-09-29T01:06:38;12.10;99.90
28632;DHT22;15818;45.534;5.292;2022-09-29T01:09:09;12.10;99.90
28632;DHT22;15818;45.534;5.292;2022-09-29T01:11:36;12.10;99.90
28632;DHT22;15818;45.534;5.292;2022-09-29T01:14:04;12.20;99.90
28632;DHT22;15818;45.534;5.292;2022-09-29T01:16:32;12.10;99.90
28632;DHT22;15818;45.534;5.292;2022-09-29T01:19:06;12.20;99.90
28632;DHT22;15818;45.534;5.292;2022-09-29T01:24:41;12.10;99.90
28632;DHT22;15818;45.534;5.292;2022-09-29T01:27:23;12.20;99.90
28632;DHT22;15818;45.534;5.292;2022-09-29T01:31:11;12.20;99.90
28632;DHT22;15818;45.534;5.292;2022-09-29T01:33:21;12.20;99.90
28632;DHT22;15818;45.534;5.292;2022-09-29T01:38:50;12.10;99.90
28632;DHT22;15818;45.534;5.292;2022-09-29T01:41:40;12.20;99.90
28632;DHT22;15818;45.534;5.292;2022-09-29T01:44:17;12.20;99.90
28632;DHT22;15818;45.534;5.292;2022-09-29T01:46:50;12.10;99.90
28632;DHT22;15818;45.534;5.292;2022-09-29T01:49:18;12.10;99.90
28632;DHT22;15818;45.534;5.292;2022-09-29T01:54:24;12.20;99.90
28632;DHT22;15818;45.534;5.292;2022-09-29T01:57:00;12.10;99.90
28632;DHT22;15818;45.534;5.292;2022-09-29T01:59:43;12.10;99.90
28632;DHT22;15818;45.534;5.292;2022-09-29T02:02:15;12.10;99.90
28632;DHT22;15818;45.534;5.292;2022-09-29T02:04:53;12.00;99.90
28632;DHT22;15818;45.534;5.292;2022-09-29T02:07:52;11.90;99.90
28632;DHT22;15818;45.534;5.292;2022-09-29T02:10:31;11.60;99.90
28632;DHT22;15818;45.534;5.292;2022-09-29T02:13:00;11.10;99.90
28632;DHT22;15818;45.534;5.292;2022-09-29T02:15:32;11.00;99.90
28632;DHT22;15818;45.534;5.292;2022-09-29T02:18:02;11.00;99.90
28632;DHT22;15818;45.534;5.292;2022-09-29T02:20:31;10.90;99.90
28632;DHT22;15818;45.534;5.292;2022-09-29T02:22:57;10.90;99.90
28632;DHT22;15818;45.534;5.292;2022-09-29T02:25:23;10.90;99.90
28632;DHT22;15818;45.534;5.292;2022-09-29T02:27:49;11.00;99.90
28632;DHT22;15818;45.534;5.292;2022-09-29T02:30:16;11.00;99.90
28632;DHT22;15818;45.534;5.292;2022-09-29T02:32:42;11.00;99.90
28632;DHT22;15818;45.534;5.292;2022-09-29T02:35:10;11.10;99.90
28632;DHT22;15818;45.534;5.292;2022-09-29T02:37:56;11.00;99.90
28632;DHT22;15818;45.534;5.292;2022-09-29T02:40:28;11.00;99.90
28632;DHT22;15818;45.534;5.292;2022-09-29T02:49:12;11.10;99.90
28632;DHT22;15818;45.534;5.292;2022-09-29T02:51:49;11.10;99.90
28632;DHT22;15818;45.534;5.292;2022-09-29T02:54:24;11.10;99.90
28632;DHT22;15818;45.534;5.292;2022-09-29T02:57:18;11.10;99.90
28632;DHT22;15818;45.534;5.292;2022-09-29T03:00:05;11.10;99.90
28632;DHT22;15818;45.534;5.292;2022-09-29T03:02:37;11.00;99.90
28632;DHT22;15818;45.534;5.292;2022-09-29T03:05:06;11.00;99.90
28632;DHT22;15818;45.534;5.292;2022-09-29T03:07:32;11.00;99.90
28632;DHT22;15818;45.534;5.292;2022-09-29T03:09:58;10.90;99.90
28632;DHT22;15818;45.534;5.292;2022-09-29T03:12:24;10.90;99.90
28632;DHT22;15818;45.534;5.292;2022-09-29T03:14:50;10.90;99.90
28632;DHT22;15818;45.534;5.292;2022-09-29T03:17:15;10.90;99.90
28632;DHT22;15818;45.534;5.292;2022-09-29T03:19:41;11.00;99.90
28632;DHT22;15818;45.534;5.292;2022-09-29T03:22:07;11.00;99.90
28632;DHT22;15818;45.534;5.292;2022-09-29T03:24:32;11.10;99.90
28632;DHT22;15818;45.534;5.292;2022-09-29T03:26:58;11.00;99.90
28632;DHT22;15818;45.534;5.292;2022-09-29T03:29:24;11.10;99.90
28632;DHT22;15818;45.534;5.292;2022-09-29T03:31:49;11.10;99.90
28632;DHT22;15818;45.534;5.292;2022-09-29T03:34:15;11.10;99.90
28632;DHT22;15818;45.534;5.292;2022-09-29T03:36:41;11.10;99.90
28632;DHT22;15818;45.534;5.292;2022-09-29T03:39:07;11.10;99.90
28632;DHT22;15818;45.534;5.292;2022-09-29T03:41:33;11.10;99.90
28632;DHT22;15818;45.534;5.292;2022-09-29T03:43:58;11.10;99.90
28632;DHT22;15818;45.534;5.292;2022-09-29T03:46:24;11.00;99.90
28632;DHT22;15818;45.534;5.292;2022-09-29T03:48:50;11.00;99.90
28632;DHT22;15818;45.534;5.292;2022-09-29T03:51:15;11.00;99.90
28632;DHT22;15818;45.534;5.292;2022-09-29T03:53:41;10.90;99.90
28632;DHT22;15818;45.534;5.292;2022-09-29T03:56:07;10.90;99.90
28632;DHT22;15818;45.534;5.292;2022-09-29T03:58:32;10.90;99.90
28632;DHT22;15818;45.534;5.292;2022-09-29T04:00:58;10.90;99.90
28632;DHT22;15818;45.534;5.292;2022-09-29T04:03:26;10.80;99.90
28632;DHT22;15818;45.534;5.292;2022-09-29T04:05:51;10.80;99.90
28632;DHT22;15818;45.534;5.292;2022-09-29T04:08:17;10.70;99.90
28632;DHT22;15818;45.534;5.292;2022-09-29T04:10:45;10.80;99.90
28632;DHT22;15818;45.534;5.292;2022-09-29T04:13:12;10.70;99.90
28632;DHT22;15818;45.534;5.292;2022-09-29T04:15:37;10.70;99.90
28632;DHT22;15818;45.534;5.292;2022-09-29T04:18:04;10.70;99.90
28632;DHT22;15818;45.534;5.292;2022-09-29T04:20:30;10.70;99.90
28632;DHT22;15818;45.534;5.292;2022-09-29T04:22:56;10.70;99.90
28632;DHT22;15818;45.534;5.292;2022-09-29T04:25:21;10.60;99.90
28632;DHT22;15818;45.534;5.292;2022-09-29T04:27:47;10.60;99.90
28632;DHT22;15818;45.534;5.292;2022-09-29T04:30:13;10.50;99.90
28632;DHT22;15818;45.534;5.292;2022-09-29T04:32:39;10.40;99.90
28632;DHT22;15818;45.534;5.292;2022-09-29T04:35:05;10.40;99.90
28632;DHT22;15818;45.534;5.292;2022-09-29T04:37:31;10.50;99.90
28632;DHT22;15818;45.534;5.292;2022-09-29T04:39:56;10.40;99.90
28632;DHT22;15818;45.534;5.292;2022-09-29T04:42:22;10.50;99.90
28632;DHT22;15818;45.534;5.292;2022-09-29T04:44:48;10.40;99.90
28632;DHT22;15818;45.534;5.292;2022-09-29T04:47:14;10.40;99.90
28632;DHT22;15818;45.534;5.292;2022-09-29T04:49:40;10.40;99.90
28632;DHT22;15818;45.534;5.292;2022-09-29T04:52:05;10.50;99.90
28632;DHT22;15818;45.534;5.292;2022-09-29T04:54:31;10.50;99.90
28632;DHT22;15818;45.534;5.292;2022-09-29T04:56:58;10.40;99.90
28632;DHT22;15818;45.534;5.292;2022-09-29T04:59:23;10.50;99.90
28632;DHT22;15818;45.534;5.292;2022-09-29T05:01:49;10.50;99.90
28632;DHT22;15818;45.534;5.292;2022-09-29T05:04:15;10.40;99.90
28632;DHT22;15818;45.534;5.292;2022-09-29T05:06:40;10.50;99.90
28632;DHT22;15818;45.534;5.292;2022-09-29T05:09:06;10.50;99.90
28632;DHT22;15818;45.534;5.292;2022-09-29T05:11:32;10.40;99.90
28632;DHT22;15818;45.534;5.292;2022-09-29T05:13:58;10.40;99.90
28632;DHT22;15818;45.534;5.292;2022-09-29T05:16:25;10.40;99.90
28632;DHT22;15818;45.534;5.292;2022-09-29T05:18:51;10.40;99.90
28632;DHT22;15818;45.534;5.292;2022-09-29T05:21:17;10.40;99.90
28632;DHT22;15818;45.534;5.292;2022-09-29T05:23:43;10.40;99.90
28632;DHT22;15818;45.534;5.292;2022-09-29T05:26:10;10.40;99.90
28632;DHT22;15818;45.534;5.292;2022-09-29T05:28:37;10.40;99.90
28632;DHT22;15818;45.534;5.292;2022-09-29T05:31:07;10.40;99.90
28632;DHT22;15818;45.534;5.292;2022-09-29T05:33:34;10.50;99.90
28632;DHT22;15818;45.534;5.292;2022-09-29T05:36:03;10.50;99.90
28632;DHT22;15818;45.534;5.292;2022-09-29T05:38:29;10.50;99.90
28632;DHT22;15818;45.534;5.292;2022-09-29T05:40:55;10.50;99.90
28632;DHT22;15818;45.534;5.292;2022-09-29T05:43:21;10.50;99.90
28632;DHT22;15818;45.534;5.292;2022-09-29T05:45:46;10.50;99.90
28632;DHT22;15818;45.534;5.292;2022-09-29T05:48:12;10.50;99.90
28632;DHT22;15818;45.534;5.292;2022-09-29T05:50:38;10.60;99.90
28632;DHT22;15818;45.534;5.292;2022-09-29T05:53:10;10.60;99.90
28632;DHT22;15818;45.534;5.292;2022-09-29T05:55:36;10.60;99.90
28632;DHT22;15818;45.534;5.292;2022-09-29T05:58:03;10.70;99.90
28632;DHT22;15818;45.534;5.292;2022-09-29T06:00:29;10.70;99.90
28632;DHT22;15818;45.534;5.292;2022-09-29T06:02:59;10.70;99.90
28632;DHT22;15818;45.534;5.292;2022-09-29T06:05:26;10.80;99.90
28632;DHT22;15818;45.534;5.292;2022-09-29T06:07:52;10.80;99.90
28632;DHT22;15818;45.534;5.292;2022-09-29T06:10:18;10.80;99.90
28632;DHT22;15818;45.534;5.292;2022-09-29T06:12:44;10.80;99.90
28632;DHT22;15818;45.534;5.292;2022-09-29T06:15:10;10.80;99.90
28632;DHT22;15818;45.534;5.292;2022-09-29T06:17:36;10.90;99.90
28632;DHT22;15818;45.534;5.292;2022-09-29T06:20:04;10.90;99.90
28632;DHT22;15818;45.534;5.292;2022-09-29T06:22:30;10.90;99.90
28632;DHT22;15818;45.534;5.292;2022-09-29T06:24:55;11.00;99.90
28632;DHT22;15818;45.534;5.292;2022-09-29T06:27:21;11.00;99.90
28632;DHT22;15818;45.534;5.292;2022-09-29T06:29:47;11.00;99.90
28632;DHT22;15818;45.534;5.292;2022-09-29T06:32:13;11.10;99.90
28632;DHT22;15818;45.534;5.292;2022-09-29T06:34:38;11.20;99.90
28632;DHT22;15818;45.534;5.292;2022-09-29T06:37:25;11.30;99.90
28632;DHT22;15818;45.534;5.292;2022-09-29T06:40:03;11.30;99.90
28632;DHT22;15818;45.534;5.292;2022-09-29T06:42:29;11.40;99.90
28632;DHT22;15818;45.534;5.292;2022-09-29T06:44:55;11.50;99.90
28632;DHT22;15818;45.534;5.292;2022-09-29T06:47:21;11.50;99.90
28632;DHT22;15818;45.534;5.292;2022-09-29T06:49:47;11.60;99.90
28632;DHT22;15818;45.534;5.292;2022-09-29T06:52:13;11.60;99.90
28632;DHT22;15818;45.534;5.292;2022-09-29T06:54:38;11.60;99.90
28632;DHT22;15818;45.534;5.292;2022-09-29T06:57:04;11.70;99.90
28632;DHT22;15818;45.534;5.292;2022-09-29T06:59:30;11.60;99.90
28632;DHT22;15818;45.534;5.292;2022-09-29T07:01:55;11.60;99.90
28632;DHT22;15818;45.534;5.292;2022-09-29T07:04:22;11.60;99.90
28632;DHT22;15818;45.534;5.292;2022-09-29T07:06:47;11.60;99.90
28632;DHT22;15818;45.534;5.292;2022-09-29T07:09:14;11.60;99.90
28632;DHT22;15818;45.534;5.292;2022-09-29T07:11:46;11.60;99.90
28632;DHT22;15818;45.534;5.292;2022-09-29T07:14:16;11.60;99.90
28632;DHT22;15818;45.534;5.292;2022-09-29T07:16:42;11.60;99.90
28632;DHT22;15818;45.534;5.292;2022-09-29T07:19:09;11.60;99.90
28632;DHT22;15818;45.534;5.292;2022-09-29T07:21:35;11.60;99.90
28632;DHT22;15818;45.534;5.292;2022-09-29T07:24:00;11.60;99.90
28632;DHT22;15818;45.534;5.292;2022-09-29T07:26:26;11.60;99.90
28632;DHT22;15818;45.534;5.292;2022-09-29T07:28:52;11.60;99.90
28632;DHT22;15818;45.534;5.292;2022-09-29T07:31:18;11.60;99.90
28632;DHT22;15818;45.534;5.292;2022-09-29T07:33:47;11.70;99.90
28632;DHT22;15818;45.534;5.292;2022-09-29T07:36:15;11.70;99.90
28632;DHT22;15818;45.534;5.292;2022-09-29T07:38:44;11.70;99.90
28632;DHT22;15818;45.534;5.292;2022-09-29T07:41:11;11.70;99.90
28632;DHT22;15818;45.534;5.292;2022-09-29T07:43:37;11.70;99.90
28632;DHT22;15818;45.534;5.292;2022-09-29T07:46:04;11.60;99.90
28632;DHT22;15818;45.534;5.292;2022-09-29T07:48:30;11.60;99.90
28632;DHT22;15818;45.534;5.292;2022-09-29T07:51:17;11.70;99.90
28632;DHT22;15818;45.534;5.292;2022-09-29T07:53:43;11.70;99.90
28632;DHT22;15818;45.534;5.292;2022-09-29T07:56:20;11.80;99.90
28632;DHT22;15818;45.534;5.292;2022-09-29T07:58:47;11.80;99.90
28632;DHT22;15818;45.534;5.292;2022-09-29T08:01:14;11.80;99.90
28632;DHT22;15818;45.534;5.292;2022-09-29T08:03:43;11.90;99.90
28632;DHT22;15818;45.534;5.292;2022-09-29T08:06:10;11.90;99.90
28632;DHT22;15818;45.534;5.292;2022-09-29T08:08:37;11.90;99.90
28632;DHT22;15818;45.534;5.292;2022-09-29T08:11:08;11.90;99.90
28632;DHT22;15818;45.534;5.292;2022-09-29T08:13:34;12.00;99.90
28632;DHT22;15818;45.534;5.292;2022-09-29T08:16:02;12.10;99.90
28632;DHT22;15818;45.534;5.292;2022-09-29T08:18:30;12.10;99.90
28632;DHT22;15818;45.534;5.292;2022-09-29T08:20:56;12.10;99.90
28632;DHT22;15818;45.534;5.292;2022-09-29T08:23:22;12.10;99.90
28632;DHT22;15818;45.534;5.292;2022-09-29T08:25:48;12.10;99.90
28632;DHT22;15818;45.534;5.292;2022-09-29T08:28:14;12.10;99.90
28632;DHT22;15818;45.534;5.292;2022-09-29T08:30:40;12.00;99.90
28632;DHT22;15818;45.534;5.292;2022-09-29T08:33:06;12.00;99.90
28632;DHT22;15818;45.534;5.292;2022-09-29T08:35:40;12.00;99.90
28632;DHT22;15818;45.534;5.292;2022-09-29T08:38:05;12.00;99.90
28632;DHT22;15818;45.534;5.292;2022-09-29T08:40:31;12.00;99.90
28632;DHT22;15818;45.534;5.292;2022-09-29T08:43:03;12.10;99.90
28632;DHT22;15818;45.534;5.292;2022-09-29T08:45:43;12.10;99.90
28632;DHT22;15818;45.534;5.292;2022-09-29T08:48:22;12.20;99.90
28632;DHT22;15818;45.534;5.292;2022-09-29T08:50:58;12.20;99.90
28632;DHT22;15818;45.534;5.292;2022-09-29T08:53:26;12.30;99.90
28632;DHT22;15818;45.534;5.292;2022-09-29T08:56:08;12.20;99.90
28632;DHT22;15818;45.534;5.292;2022-09-29T08:58:37;12.20;99.90
28632;DHT22;15818;45.534;5.292;2022-09-29T09:03:52;12.10;99.90
28632;DHT22;15818;45.534;5.292;2022-09-29T09:22:24;12.30;99.90
28632;DHT22;15818;45.534;5.292;2022-09-29T09:27:43;12.30;99.90
28632;DHT22;15818;45.534;5.292;2022-09-29T09:30:15;12.30;99.90
28632;DHT22;15818;45.534;5.292;2022-09-29T09:32:57;12.30;99.90
28632;DHT22;15818;45.534;5.292;2022-09-29T09:35:34;12.20;99.90
28632;DHT22;15818;45.534;5.292;2022-09-29T09:38:05;12.30;99.90
28632;DHT22;15818;45.534;5.292;2022-09-29T09:40:47;12.60;99.90
28632;DHT22;15818;45.534;5.292;2022-09-29T09:43:15;12.60;99.90
28632;DHT22;15818;45.534;5.292;2022-09-29T09:45:57;12.60;99.90
28632;DHT22;15818;45.534;5.292;2022-09-29T09:48:30;12.70;99.90
28632;DHT22;15818;45.534;5.292;2022-09-29T09:51:09;12.60;99.90
28632;DHT22;15818;45.534;5.292;2022-09-29T09:53:42;12.60;99.90
28632;DHT22;15818;45.534;5.292;2022-09-29T10:01:38;12.70;99.90
28632;DHT22;15818;45.534;5.292;2022-09-29T10:04:04;12.70;99.90
28632;DHT22;15818;45.534;5.292;2022-09-29T10:06:31;12.70;99.90
28632;DHT22;15818;45.534;5.292;2022-09-29T10:08:57;12.60;99.90
28632;DHT22;15818;45.534;5.292;2022-09-29T10:11:24;12.40;99.90
28632;DHT22;15818;45.534;5.292;2022-09-29T10:14:03;12.50;99.90
28632;DHT22;15818;45.534;5.292;2022-09-29T10:16:55;12.50;99.90
28632;DHT22;15818;45.534;5.292;2022-09-29T10:19:23;12.70;99.90
28632;DHT22;15818;45.534;5.292;2022-09-29T10:22:12;12.80;99.90
28632;DHT22;15818;45.534;5.292;2022-09-29T10:24:38;12.70;99.90
28632;DHT22;15818;45.534;5.292;2022-09-29T10:27:04;12.40;99.90
28632;DHT22;15818;45.534;5.292;2022-09-29T10:29:41;12.20;99.90
28632;DHT22;15818;45.534;5.292;2022-09-29T10:32:30;12.20;99.90
28632;DHT22;15818;45.534;5.292;2022-09-29T10:35:22;12.40;99.90
28632;DHT22;15818;45.534;5.292;2022-09-29T10:38:01;12.50;99.90
28632;DHT22;15818;45.534;5.292;2022-09-29T10:40:27;12.30;99.90
28632;DHT22;15818;45.534;5.292;2022-09-29T10:42:54;12.20;99.90
28632;DHT22;15818;45.534;5.292;2022-09-29T10:45:28;12.10;99.90
28632;DHT22;15818;45.534;5.292;2022-09-29T10:50:28;12.20;99.90
28632;DHT22;15818;45.534;5.292;2022-09-29T10:53:02;12.50;99.90
28632;DHT22;15818;45.534;5.292;2022-09-29T10:55:31;12.60;99.90
28632;DHT22;15818;45.534;5.292;2022-09-29T10:58:17;12.90;99.90
28632;DHT22;15818;45.534;5.292;2022-09-29T11:00:45;13.00;99.90
28632;DHT22;15818;45.534;5.292;2022-09-29T11:05:57;13.00;99.90
28632;DHT22;15818;45.534;5.292;2022-09-29T11:08:23;12.80;99.90
28632;DHT22;15818;45.534;5.292;2022-09-29T11:11:30;12.60;99.90
28632;DHT22;15818;45.534;5.292;2022-09-29T11:13:56;12.60;99.90
28632;DHT22;15818;45.534;5.292;2022-09-29T11:16:31;12.60;99.90
28632;DHT22;15818;45.534;5.292;2022-09-29T11:19:08;12.70;99.90
28632;DHT22;15818;45.534;5.292;2022-09-29T11:43:44;11.70;99.90
28632;DHT22;15818;45.534;5.292;2022-09-29T12:11:05;11.80;99.90
28632;DHT22;15818;45.534;5.292;2022-09-29T12:16:01;12.20;99.90
28632;DHT22;15818;45.534;5.292;2022-09-29T12:18:48;12.30;99.90
28632;DHT22;15818;45.534;5.292;2022-09-29T12:21:26;12.40;99.90
28632;DHT22;15818;45.534;5.292;2022-09-29T12:23:54;12.60;99.90
28632;DHT22;15818;45.534;5.292;2022-09-29T12:26:22;12.70;99.90
28632;DHT22;15818;45.534;5.292;2022-09-29T12:29:01;12.80;99.90
28632;DHT22;15818;45.534;5.292;2022-09-29T12:31:31;13.00;99.90
28632;DHT22;15818;45.534;5.292;2022-09-29T12:34:12;13.10;99.90
28632;DHT22;15818;45.534;5.292;2022-09-29T12:50:26;13.50;99.90
28632;DHT22;15818;45.534;5.292;2022-09-29T12:53:05;13.60;99.90
28632;DHT22;15818;45.534;5.292;2022-09-29T12:58:23;13.50;99.90
28632;DHT22;15818;45.534;5.292;2022-09-29T13:00:58;13.80;99.90
28632;DHT22;15818;45.534;5.292;2022-09-29T13:25:09;13.70;99.90
28632;DHT22;15818;45.534;5.292;2022-09-29T13:27:43;13.70;99.90
28632;DHT22;15818;45.534;5.292;2022-09-29T13:33:06;13.80;99.90
28632;DHT22;15818;45.534;5.292;2022-09-29T13:35:44;13.90;99.90
28632;DHT22;15818;45.534;5.292;2022-09-29T13:38:33;13.70;99.90
28632;DHT22;15818;45.534;5.292;2022-09-29T13:51:56;15.40;99.90
28632;DHT22;15818;45.534;5.292;2022-09-29T13:54:41;15.50;99.90
28632;DHT22;15818;45.534;5.292;2022-09-29T14:05:04;15.10;99.90
28632;DHT22;15818;45.534;5.292;2022-09-29T14:10:59;15.20;99.90
28632;DHT22;15818;45.534;5.292;2022-09-29T14:13:44;15.30;99.90
28632;DHT22;15818;45.534;5.292;2022-09-29T14:21:51;15.40;99.90
28632;DHT22;15818;45.534;5.292;2022-09-29T14:27:31;15.60;99.90
28632;DHT22;15818;45.534;5.292;2022-09-29T14:32:38;15.00;99.90
28632;DHT22;15818;45.534;5.292;2022-09-29T14:35:27;15.10;99.90
28632;DHT22;15818;45.534;5.292;2022-09-29T14:38:05;15.00;99.90
28632;DHT22;15818;45.534;5.292;2022-09-29T14:40:33;15.20;99.90
28632;DHT22;15818;45.534;5.292;2022-09-29T14:43:02;15.10;99.90
28632;DHT22;15818;45.534;5.292;2022-09-29T14:45:30;15.00;99.90
28632;DHT22;15818;45.534;5.292;2022-09-29T14:48:27;15.10;99.90
28632;DHT22;15818;45.534;5.292;2022-09-29T14:51:23;15.10;99.90
28632;DHT22;15818;45.534;5.292;2022-09-29T14:54:33;15.10;99.90
28632;DHT22;15818;45.534;5.292;2022-09-29T15:02:29;14.90;99.90
28632;DHT22;15818;45.534;5.292;2022-09-29T15:04:57;15.00;99.90
28632;DHT22;15818;45.534;5.292;2022-09-29T15:07:26;15.00;99.90
28632;DHT22;15818;45.534;5.292;2022-09-29T15:09:56;14.80;99.90
28632;DHT22;15818;45.534;5.292;2022-09-29T15:12:28;14.80;99.90
28632;DHT22;15818;45.534;5.292;2022-09-29T15:14:56;14.80;99.90
28632;DHT22;15818;45.534;5.292;2022-09-29T15:20:43;14.70;99.90
28632;DHT22;15818;45.534;5.292;2022-09-29T15:23:22;14.50;99.90
28632;DHT22;15818;45.534;5.292;2022-09-29T15:25:54;14.60;99.90
28632;DHT22;15818;45.534;5.292;2022-09-29T15:28:36;14.60;99.90
28632;DHT22;15818;45.534;5.292;2022-09-29T15:31:12;14.60;99.90
28632;DHT22;15818;45.534;5.292;2022-09-29T15:33:42;14.40;99.90
28632;DHT22;15818;45.534;5.292;2022-09-29T15:36:20;14.40;99.90
28632;DHT22;15818;45.534;5.292;2022-09-29T15:38:54;14.30;99.90
28632;DHT22;15818;45.534;5.292;2022-09-29T15:41:23;14.20;99.90
28632;DHT22;15818;45.534;5.292;2022-09-29T15:43:53;14.20;99.90
28632;DHT22;15818;45.534;5.292;2022-09-29T15:49:10;14.00;99.90
28632;DHT22;15818;45.534;5.292;2022-09-29T15:51:37;14.00;99.90
28632;DHT22;15818;45.534;5.292;2022-09-29T15:54:04;14.00;99.90
28632;DHT22;15818;45.534;5.292;2022-09-29T15:56:37;13.90;99.90
28632;DHT22;15818;45.534;5.292;2022-09-29T15:59:49;13.90;99.90
28632;DHT22;15818;45.534;5.292;2022-09-29T16:02:28;13.90;99.90
28632;DHT22;15818;45.534;5.292;2022-09-29T16:04:59;13.90;99.90
28632;DHT22;15818;45.534;5.292;2022-09-29T16:07:30;13.80;99.90
28632;DHT22;15818;45.534;5.292;2022-09-29T16:10:04;13.60;99.90
28632;DHT22;15818;45.534;5.292;2022-09-29T16:12:39;13.60;99.90
28632;DHT22;15818;45.534;5.292;2022-09-29T16:15:17;13.60;99.90
28632;DHT22;15818;45.534;5.292;2022-09-29T16:17:47;13.50;99.90
28632;DHT22;15818;45.534;5.292;2022-09-29T16:20:18;13.50;99.90
28632;DHT22;15818;45.534;5.292;2022-09-29T16:22:47;13.40;99.90
28632;DHT22;15818;45.534;5.292;2022-09-29T16:25:23;13.50;99.90
28632;DHT22;15818;45.534;5.292;2022-09-29T16:28:00;13.30;99.90
28632;DHT22;15818;45.534;5.292;2022-09-29T16:30:34;13.10;99.90
28632;DHT22;15818;45.534;5.292;2022-09-29T16:35:38;12.80;99.90
28632;DHT22;15818;45.534;5.292;2022-09-29T16:40:45;12.50;99.90
28632;DHT22;15818;45.534;5.292;2022-09-29T16:43:22;12.50;99.90
28632;DHT22;15818;45.534;5.292;2022-09-29T16:45:50;12.50;99.90
28632;DHT22;15818;45.534;5.292;2022-09-29T16:48:18;12.50;99.90
28632;DHT22;15818;45.534;5.292;2022-09-29T16:50:48;12.50;99.90
28632;DHT22;15818;45.534;5.292;2022-09-29T16:53:40;12.50;99.90
28632;DHT22;15818;45.534;5.292;2022-09-29T16:56:24;12.50;99.90
28632;DHT22;15818;45.534;5.292;2022-09-29T16:59:13;12.40;99.90
28632;DHT22;15818;45.534;5.292;2022-09-29T17:01:41;12.20;99.90
28632;DHT22;15818;45.534;5.292;2022-09-29T17:04:08;12.00;99.90
28632;DHT22;15818;45.534;5.292;2022-09-29T17:06:35;11.90;99.90
28632;DHT22;15818;45.534;5.292;2022-09-29T17:09:02;11.90;99.90
28632;DHT22;15818;45.534;5.292;2022-09-29T17:11:28;11.90;99.90
28632;DHT22;15818;45.534;5.292;2022-09-29T17:13:54;11.90;99.90
28632;DHT22;15818;45.534;5.292;2022-09-29T17:16:23;12.00;99.90
28632;DHT22;15818;45.534;5.292;2022-09-29T17:18:51;12.00;99.90
28632;DHT22;15818;45.534;5.292;2022-09-29T17:21:18;11.90;99.90
28632;DHT22;15818;45.534;5.292;2022-09-29T17:23:43;11.80;99.90
28632;DHT22;15818;45.534;5.292;2022-09-29T17:26:12;11.60;99.90
28632;DHT22;15818;45.534;5.292;2022-09-29T17:29:00;11.40;99.90
28632;DHT22;15818;45.534;5.292;2022-09-29T17:31:25;11.30;99.90
28632;DHT22;15818;45.534;5.292;2022-09-29T17:33:51;11.30;99.90
28632;DHT22;15818;45.534;5.292;2022-09-29T17:36:17;11.30;99.90
28632;DHT22;15818;45.534;5.292;2022-09-29T17:38:44;11.20;99.90
28632;DHT22;15818;45.534;5.292;2022-09-29T17:41:12;11.10;99.90
28632;DHT22;15818;45.534;5.292;2022-09-29T17:43:41;11.10;99.90
28632;DHT22;15818;45.534;5.292;2022-09-29T17:46:11;11.00;99.90
28632;DHT22;15818;45.534;5.292;2022-09-29T17:48:39;11.50;99.90
28632;DHT22;15818;45.534;5.292;2022-09-29T17:51:10;11.50;99.90
28632;DHT22;15818;45.534;5.292;2022-09-29T17:53:37;11.10;99.90
28632;DHT22;15818;45.534;5.292;2022-09-29T17:56:03;11.00;99.90
28632;DHT22;15818;45.534;5.292;2022-09-29T17:58:29;10.90;99.90
28632;DHT22;15818;45.534;5.292;2022-09-29T18:00:56;10.80;99.90
28632;DHT22;15818;45.534;5.292;2022-09-29T18:03:22;10.70;99.90
28632;DHT22;15818;45.534;5.292;2022-09-29T18:05:53;10.70;99.90
28632;DHT22;15818;45.534;5.292;2022-09-29T18:08:26;10.80;99.90
28632;DHT22;15818;45.534;5.292;2022-09-29T18:10:53;10.90;99.90
28632;DHT22;15818;45.534;5.292;2022-09-29T18:13:20;10.90;99.90
28632;DHT22;15818;45.534;5.292;2022-09-29T18:15:47;10.80;99.90
28632;DHT22;15818;45.534;5.292;2022-09-29T18:18:13;10.60;99.90
28632;DHT22;15818;45.534;5.292;2022-09-29T18:20:40;10.50;99.90
28632;DHT22;15818;45.534;5.292;2022-09-29T18:23:06;10.50;99.90
28632;DHT22;15818;45.534;5.292;2022-09-29T18:25:32;10.50;99.90
28632;DHT22;15818;45.534;5.292;2022-09-29T18:27:59;10.60;99.90
28632;DHT22;15818;45.534;5.292;2022-09-29T18:30:31;10.60;99.90
28632;DHT22;15818;45.534;5.292;2022-09-29T18:32:58;10.50;99.90
28632;DHT22;15818;45.534;5.292;2022-09-29T18:35:30;10.50;99.90
28632;DHT22;15818;45.534;5.292;2022-09-29T18:37:57;10.40;99.90
28632;DHT22;15818;45.534;5.292;2022-09-29T18:40:24;10.30;99.90
28632;DHT22;15818;45.534;5.292;2022-09-29T18:42:51;10.20;99.90
28632;DHT22;15818;45.534;5.292;2022-09-29T18:45:19;10.20;99.90
28632;DHT22;15818;45.534;5.292;2022-09-29T18:47:49;10.30;99.90
28632;DHT22;15818;45.534;5.292;2022-09-29T18:51:02;10.20;99.90
28632;DHT22;15818;45.534;5.292;2022-09-29T18:53:08;10.10;99.90
28632;DHT22;15818;45.534;5.292;2022-09-29T18:55:34;9.90;99.90
28632;DHT22;15818;45.534;5.292;2022-09-29T18:57:59;9.90;99.90
28632;DHT22;15818;45.534;5.292;2022-09-29T19:00:31;9.90;99.90